Other Surface Observations
Issued by NWS Great Falls, MT

Home | Current Version | Previous Version | Text Only | Print | Product List | Glossary On
Versions: 1 2 3 4 5 6 7 8 9 10 11 12 13 14 15 16 17 18 19 20 21 22 23 24 25 26 27 28 29 30 31 32 33 34 35 36 37 38 39 40 41 42 43 44 45 46 47 48 49 50
885
SXUS55 KTFX 180721
OSOTFX

AREA AWOS OBSERVATIONS
NATIONAL WEATHER SERVICE GREAT FALLS MT
1221 AM MST Sun Feb 18 2018

METAR K6S0 180720Z AUTO 01007KT 10SM FEW035 FEW048 OVC060 M05/M06 A2944 RMK A01
METAR K6S8 180715Z AUTO 32009KT 10SM M04/M06 A2947 RMK A01
METAR K7S6 180720Z AUTO 30027KT 1 1/2SM BR M14/M16 A2951 RMK A01
METAR K7S0 180715Z AUTO 01023G30KT 4SM BR M07/M08 A2952 RMK A01



USA.gov is the U.S. government's official web portal to all federal, state and local government web resources and services.